createdAt,value
2022-10-20T00:00:52.583Z,1.85
2022-10-20T00:03:58.750Z,1.33
2022-10-20T00:07:00.958Z,1.80
2022-10-20T00:10:03.504Z,2.08
2022-10-20T00:13:06.172Z,2.72
2022-10-20T00:16:08.623Z,8.15
2022-10-20T00:19:12.004Z,1.10
2022-10-20T00:22:15.203Z,2.92
2022-10-20T00:25:17.269Z,2.63
2022-10-20T00:28:19.205Z,1.70
2022-10-20T00:31:23.002Z,0.70
2022-10-20T00:34:25.106Z,1.65
2022-10-20T00:37:27.096Z,1.15
2022-10-20T00:40:29.067Z,1.52
2022-10-20T00:43:56.569Z,4.25
2022-10-20T00:46:58.910Z,1.73
2022-10-20T00:50:06.447Z,1.17
2022-10-20T00:53:08.783Z,3.08
2022-10-20T00:56:11.562Z,0.98
2022-10-20T00:59:18.038Z,4.65
2022-10-20T01:02:20.459Z,0.88
2022-10-20T01:05:23.229Z,1.02
2022-10-20T01:08:29.037Z,2.35
2022-10-20T01:11:36.959Z,1.60
2022-10-20T01:14:47.987Z,0.75
2022-10-20T01:17:56.040Z,0.45
2022-10-20T01:21:21.494Z,0.25
2022-10-20T01:24:32.184Z,1.48
2022-10-20T01:27:42.064Z,0.75
2022-10-20T01:30:48.951Z,0.82
2022-10-20T01:34:06.540Z,1.23
2022-10-20T01:37:19.728Z,1.58
2022-10-20T01:40:53.295Z,1.75
2022-10-20T01:43:56.549Z,1.63
2022-10-20T01:47:00.368Z,2.10
2022-10-20T01:50:05.932Z,3.00
2022-10-20T01:53:08.162Z,1.40
2022-10-20T01:56:18.767Z,0.68
2022-10-20T01:59:35.622Z,2.47
2022-10-20T02:02:40.230Z,1.05
2022-10-20T02:06:07.503Z,1.17
2022-10-20T02:09:18.081Z,0.63
2022-10-20T02:12:27.962Z,0.63
2022-10-20T02:15:32.041Z,2.08
2022-10-20T02:18:40.142Z,1.00
2022-10-20T02:21:42.435Z,0.65
2022-10-20T02:24:45.151Z,1.67
2022-10-20T02:27:48.647Z,1.50
2022-10-20T02:30:51.537Z,1.70
2022-10-20T02:33:56.624Z,1.55
2022-10-20T02:36:59.499Z,1.80
2022-10-20T02:40:01.828Z,1.35
2022-10-20T02:43:03.888Z,0.93
2022-10-20T02:46:06.202Z,2.55
2022-10-20T02:49:08.329Z,1.25
2022-10-20T02:52:10.239Z,0.90
2022-10-20T02:55:12.420Z,4.05
2022-10-20T02:58:16.450Z,2.33
2022-10-20T03:01:18.474Z,2.92
2022-10-20T03:04:20.689Z,0.90
2022-10-20T03:07:22.776Z,1.25
2022-10-20T03:10:24.925Z,0.95
2022-10-20T03:13:27.056Z,1.33
2022-10-20T03:16:29.449Z,0.50
2022-10-20T03:19:31.547Z,1.02
2022-10-20T03:22:34.359Z,0.80
2022-10-20T03:25:36.336Z,6.05
2022-10-20T03:28:39.585Z,0.82
2022-10-20T03:31:41.691Z,0.73
2022-10-20T03:34:43.955Z,5.35
2022-10-20T03:37:45.909Z,1.02
2022-10-20T03:40:48.048Z,2.15
2022-10-20T03:43:50.167Z,1.42
2022-10-20T03:46:53.060Z,2.53
2022-10-20T03:49:55.219Z,2.00
2022-10-20T03:52:57.731Z,1.58
2022-10-20T03:56:00.791Z,3.08
2022-10-20T04:02:05.930Z,1.17
2022-10-20T04:05:10.930Z,3.88
2022-10-20T04:08:12.974Z,2.65
2022-10-20T04:11:15.405Z,4.70
2022-10-20T04:14:17.538Z,3.90
2022-10-20T04:17:20.025Z,2.20
2022-10-20T04:20:22.076Z,1.90
2022-10-20T04:23:24.057Z,0.93
2022-10-20T04:26:26.448Z,1.20
2022-10-20T04:29:28.655Z,2.33
2022-10-20T04:32:31.856Z,0.98
2022-10-20T04:35:34.123Z,2.13
2022-10-20T04:38:36.433Z,2.42
2022-10-20T04:41:38.811Z,1.20
2022-10-20T04:44:40.881Z,2.17
2022-10-20T04:47:43.019Z,3.25
2022-10-20T04:50:45.112Z,3.45
2022-10-20T04:53:47.841Z,1.33
2022-10-20T04:56:49.769Z,2.65
2022-10-20T04:59:51.751Z,2.28
2022-10-20T05:02:55.261Z,2.10
2022-10-20T05:06:09.505Z,3.22
2022-10-20T05:09:15.479Z,1.42
2022-10-20T05:12:17.953Z,2.63
2022-10-20T05:15:20.097Z,1.70
2022-10-20T05:18:22.136Z,4.50
2022-10-20T05:21:26.947Z,5.45
2022-10-20T05:24:30.195Z,1.33
2022-10-20T05:27:32.389Z,0.70
2022-10-20T05:30:36.021Z,3.05
2022-10-20T05:33:38.479Z,1.48
2022-10-20T05:36:40.730Z,1.40
2022-10-20T05:39:43.582Z,0.90
2022-10-20T05:42:45.710Z,1.17
2022-10-20T05:45:53.961Z,10.95
2022-10-20T05:48:58.989Z,2.33
2022-10-20T05:52:00.879Z,0.98
2022-10-20T05:55:04.346Z,3.45
2022-10-20T05:58:06.596Z,2.15
2022-10-20T06:01:11.296Z,7.57
2022-10-20T06:04:18.402Z,0.70
2022-10-20T06:07:20.450Z,2.60
2022-10-20T06:10:22.942Z,1.10
2022-10-20T06:13:24.981Z,1.48
2022-10-20T06:16:27.841Z,0.75
2022-10-20T06:19:29.858Z,2.72
2022-10-20T06:22:31.807Z,0.90
2022-10-20T06:25:33.837Z,5.07
2022-10-20T06:28:37.331Z,1.23
2022-10-20T06:31:44.929Z,1.60
2022-10-20T06:34:47.095Z,0.93
2022-10-20T06:37:49.091Z,1.30
2022-10-20T06:40:51.127Z,2.67
2022-10-20T06:43:58.436Z,2.40
2022-10-20T06:47:00.369Z,9.07
2022-10-20T06:50:02.548Z,1.67
2022-10-20T06:53:04.575Z,1.73
2022-10-20T06:56:09.412Z,3.38
2022-10-20T06:59:11.861Z,4.75
2022-10-20T07:02:14.159Z,6.03
2022-10-20T07:05:16.386Z,16.33
2022-10-20T07:08:18.427Z,1.80
2022-10-20T07:11:22.204Z,4.93
2022-10-20T07:14:24.311Z,3.47
2022-10-20T07:17:26.609Z,1.85
2022-10-20T07:20:28.751Z,8.88
2022-10-20T07:23:31.845Z,4.18
2022-10-20T07:26:36.534Z,6.50
2022-10-20T07:29:38.716Z,5.80
2022-10-20T07:32:40.772Z,7.55
2022-10-20T07:35:43.036Z,7.18
2022-10-20T07:38:45.886Z,1.58
2022-10-20T07:41:48.904Z,6.30
2022-10-20T07:44:51.935Z,2.53
2022-10-20T07:47:53.941Z,1.10
2022-10-20T07:51:34.669Z,1.02
2022-10-20T07:54:37.030Z,2.40
2022-10-20T07:57:39.100Z,1.25
2022-10-20T08:00:41.377Z,4.30
2022-10-20T08:03:43.484Z,0.93
2022-10-20T08:06:47.350Z,2.38
2022-10-20T08:09:49.471Z,1.25
2022-10-20T08:12:51.484Z,3.58
2022-10-20T08:15:55.545Z,1.65
2022-10-20T08:19:01.478Z,4.57
2022-10-20T08:22:04.032Z,5.75
2022-10-20T08:25:06.830Z,2.10
2022-10-20T08:28:10.979Z,3.88
2022-10-20T08:31:13.224Z,1.92
2022-10-20T08:34:15.458Z,4.90
2022-10-20T08:40:31.103Z,1.98
2022-10-20T08:43:38.118Z,2.80
2022-10-20T08:46:42.046Z,3.72
2022-10-20T08:49:46.124Z,1.48
2022-10-20T08:52:52.761Z,2.38
2022-10-20T08:55:55.753Z,2.83
2022-10-20T08:58:58.036Z,1.77
2022-10-20T09:02:00.784Z,5.72
2022-10-20T09:05:05.247Z,1.58
2022-10-20T09:08:08.018Z,5.85
2022-10-20T09:11:17.222Z,3.72
2022-10-20T09:14:19.517Z,3.28
2022-10-20T09:17:21.658Z,2.05
2022-10-20T09:20:39.225Z,3.22
2022-10-20T09:23:44.320Z,4.15
2022-10-20T09:27:04.743Z,3.55
2022-10-20T09:30:16.080Z,1.63
2022-10-20T09:33:34.098Z,2.03
2022-10-20T09:36:36.305Z,0.73
2022-10-20T09:39:51.373Z,3.80
2022-10-20T09:42:59.359Z,2.85
2022-10-20T09:46:06.967Z,3.95
2022-10-20T09:49:32.717Z,4.65
2022-10-20T09:52:47.963Z,3.13
2022-10-20T09:55:52.624Z,2.28
2022-10-20T09:58:56.595Z,3.92
2022-10-20T10:02:01.954Z,2.42
2022-10-20T10:05:20.971Z,2.63
2022-10-20T10:08:25.865Z,1.95
2022-10-20T10:11:37.071Z,6.43
2022-10-20T10:14:51.967Z,1.25
2022-10-20T10:17:55.337Z,4.97
2022-10-20T10:21:00.666Z,1.48
2022-10-20T10:24:05.241Z,1.77
2022-10-20T10:27:29.263Z,1.48
2022-10-20T10:30:33.815Z,2.10
2022-10-20T10:33:36.252Z,1.35
2022-10-20T10:36:38.756Z,2.75
2022-10-20T10:39:41.204Z,4.95
2022-10-20T10:43:11.729Z,1.75
2022-10-20T10:46:26.848Z,3.47
2022-10-20T10:49:46.880Z,2.22
2022-10-20T10:53:12.534Z,2.08
2022-10-20T10:56:33.641Z,9.38
2022-10-20T10:59:40.624Z,2.13
2022-10-20T11:02:45.280Z,1.08
2022-10-20T11:06:06.171Z,1.90
2022-10-20T11:09:27.793Z,1.30
2022-10-20T11:12:45.595Z,1.55
2022-10-20T11:15:56.561Z,0.95
2022-10-20T11:19:29.858Z,2.42
2022-10-20T11:22:40.658Z,2.67
2022-10-20T11:26:03.742Z,1.83
2022-10-20T11:29:23.267Z,4.45
2022-10-20T11:32:31.561Z,2.30
2022-10-20T11:38:44.303Z,1.70
2022-10-20T11:41:53.134Z,1.17
2022-10-20T11:44:56.662Z,2.05
2022-10-20T11:48:40.200Z,1.23
2022-10-20T11:52:02.724Z,1.05
2022-10-20T11:55:13.058Z,1.13
2022-10-20T11:58:55.402Z,2.08
2022-10-20T12:02:34.381Z,1.00
2022-10-20T12:05:58.176Z,2.47
2022-10-20T12:09:14.729Z,1.73
2022-10-20T12:12:31.845Z,0.93
2022-10-20T12:15:33.946Z,1.48
2022-10-20T12:18:37.228Z,1.05
2022-10-20T12:22:00.152Z,1.10
2022-10-20T12:25:02.715Z,2.40
2022-10-20T12:28:20.098Z,2.70
2022-10-20T12:31:22.568Z,2.33
2022-10-20T12:34:24.680Z,1.08
2022-10-20T12:37:34.782Z,1.13
2022-10-20T12:40:50.033Z,1.35
2022-10-20T12:43:54.853Z,3.25
2022-10-20T12:47:08.542Z,3.83
2022-10-20T12:50:28.862Z,1.23
2022-10-20T12:53:31.526Z,1.35
2022-10-20T12:56:38.635Z,0.98
2022-10-20T12:59:41.004Z,1.48
2022-10-20T13:02:49.845Z,2.47
2022-10-20T13:05:52.051Z,1.52
2022-10-20T13:09:03.292Z,0.63
2022-10-20T13:12:29.118Z,3.33
2022-10-20T13:15:44.517Z,2.20
2022-10-20T13:18:50.947Z,1.77
2022-10-20T13:21:53.379Z,2.50
2022-10-20T13:24:59.396Z,2.53
2022-10-20T13:28:26.441Z,3.92
2022-10-20T13:31:37.431Z,1.30
2022-10-20T13:35:05.011Z,1.60
2022-10-20T13:38:18.197Z,3.45
2022-10-20T13:41:25.956Z,3.38
2022-10-20T13:44:46.006Z,1.42
2022-10-20T13:48:02.974Z,2.08
2022-10-20T13:51:15.904Z,0.98
2022-10-20T13:54:27.487Z,3.95
2022-10-20T13:57:35.036Z,4.95
2022-10-20T14:00:39.467Z,2.93
2022-10-20T14:03:46.441Z,3.28
2022-10-20T14:06:48.471Z,4.35
2022-10-20T14:09:58.394Z,2.08
2022-10-20T14:13:02.374Z,1.65
2022-10-20T14:16:08.651Z,3.30
2022-10-20T14:19:13.664Z,2.33
2022-10-20T14:22:15.953Z,5.18
2022-10-20T14:25:18.250Z,2.28
2022-10-20T14:28:21.576Z,2.53
2022-10-20T14:31:25.008Z,4.07
2022-10-20T14:34:34.973Z,3.70
2022-10-20T14:37:45.939Z,4.88
2022-10-20T14:41:09.004Z,3.83
2022-10-20T14:44:31.120Z,5.10
2022-10-20T14:47:42.660Z,3.90
2022-10-20T14:50:44.912Z,4.75
2022-10-20T14:53:47.260Z,2.90
2022-10-20T14:56:52.428Z,1.73
2022-10-20T15:00:25.570Z,7.43
2022-10-20T15:03:27.708Z,4.78
2022-10-20T15:06:30.075Z,6.05
2022-10-20T15:09:40.000Z,3.80
2022-10-20T15:12:46.337Z,4.40
2022-10-20T15:15:49.519Z,2.38
2022-10-20T15:19:11.843Z,2.00
2022-10-20T15:22:16.242Z,9.27
2022-10-20T15:25:18.272Z,8.90
2022-10-20T15:28:25.816Z,7.07
2022-10-20T15:31:30.499Z,2.87
2022-10-20T15:34:32.811Z,6.40
2022-10-20T15:37:36.562Z,4.50
2022-10-20T15:40:38.925Z,3.70
2022-10-20T15:43:41.173Z,2.42
2022-10-20T15:46:45.182Z,4.97
2022-10-20T15:49:47.333Z,13.40
2022-10-20T15:52:49.366Z,6.25
2022-10-20T15:55:51.388Z,11.35
2022-10-20T15:58:53.601Z,10.57
2022-10-20T16:01:55.682Z,13.38
2022-10-20T16:04:57.742Z,12.30
2022-10-20T16:08:01.491Z,8.02
2022-10-20T16:11:05.336Z,6.43
2022-10-20T16:14:07.502Z,11.57
2022-10-20T16:17:09.555Z,4.53
2022-10-20T16:20:11.947Z,8.55
2022-10-20T16:23:14.080Z,6.70
2022-10-20T16:26:16.097Z,10.23
2022-10-20T16:29:18.322Z,7.13
2022-10-20T16:32:20.393Z,11.50
2022-10-20T16:35:22.792Z,7.53
2022-10-20T16:38:24.835Z,11.50
2022-10-20T16:41:26.982Z,5.13
2022-10-20T16:44:30.679Z,13.05
2022-10-20T16:47:32.970Z,6.05
2022-10-20T16:50:44.667Z,7.43
2022-10-20T16:53:46.719Z,8.38
2022-10-20T16:56:49.520Z,5.22
2022-10-20T16:59:51.774Z,7.90
2022-10-20T17:02:56.485Z,6.43
2022-10-20T17:06:01.102Z,4.68
2022-10-20T17:09:05.087Z,9.98
2022-10-20T17:12:07.421Z,5.75
2022-10-20T17:15:11.830Z,4.60
2022-10-20T17:18:14.459Z,7.13
2022-10-20T17:21:27.711Z,6.15
2022-10-20T17:24:31.420Z,7.88
2022-10-20T17:28:01.260Z,11.70
2022-10-20T17:31:29.764Z,5.80
2022-10-20T17:34:32.660Z,7.70
2022-10-20T17:37:34.712Z,5.95
2022-10-20T17:40:38.214Z,5.57
2022-10-20T17:43:42.951Z,7.20
2022-10-20T17:46:47.547Z,9.40
2022-10-20T17:49:49.623Z,4.20
2022-10-20T17:52:51.749Z,9.20
2022-10-20T17:55:53.941Z,10.85
2022-10-20T17:58:56.883Z,7.43
2022-10-20T18:01:59.100Z,9.23
2022-10-20T18:05:01.602Z,11.27
2022-10-20T18:08:03.915Z,14.88
2022-10-20T18:11:23.860Z,11.43
2022-10-20T18:14:27.868Z,8.52
2022-10-20T18:17:35.417Z,8.35
2022-10-20T18:20:41.210Z,9.52
2022-10-20T18:23:46.132Z,8.70
2022-10-20T18:30:37.244Z,22.20
2022-10-20T18:33:53.721Z,18.17
2022-10-20T18:36:58.244Z,10.75
2022-10-20T18:40:01.050Z,5.15
2022-10-20T18:43:03.278Z,5.05
2022-10-20T18:46:06.776Z,7.80
2022-10-20T18:49:11.693Z,7.78
2022-10-20T18:52:27.256Z,19.90
2022-10-20T18:55:40.791Z,26.45
2022-10-20T19:03:33.420Z,14.65
2022-10-20T19:06:44.247Z,16.75
2022-10-20T19:09:46.260Z,17.63
2022-10-20T19:12:48.294Z,12.77
2022-10-20T19:15:50.324Z,9.00
2022-10-20T19:18:55.553Z,17.02
2022-10-20T19:21:57.681Z,27.45
2022-10-20T19:24:59.998Z,25.45
2022-10-20T19:28:02.161Z,26.50
2022-10-20T19:31:20.615Z,29.05
2022-10-20T19:34:29.461Z,20.90
2022-10-20T19:37:31.578Z,28.98
2022-10-20T19:40:33.550Z,22.17
2022-10-20T19:43:36.887Z,19.17
2022-10-20T19:46:40.436Z,10.80
2022-10-20T19:49:42.545Z,12.25
2022-10-20T19:52:44.574Z,13.32
2022-10-20T19:55:48.107Z,17.17
2022-10-20T19:58:50.313Z,16.52
2022-10-20T20:01:52.919Z,14.80
2022-10-20T20:04:55.003Z,19.77
2022-10-20T20:07:57.089Z,19.67
2022-10-20T20:11:01.302Z,16.02
2022-10-20T20:14:17.763Z,17.42
2022-10-20T20:17:19.826Z,13.32
2022-10-20T20:20:22.136Z,14.02
2022-10-20T20:23:34.705Z,11.23
2022-10-20T20:26:44.738Z,11.00
2022-10-20T20:29:46.783Z,17.77
2022-10-20T20:32:52.117Z,15.88
2022-10-20T20:36:01.505Z,11.10
2022-10-20T20:39:03.745Z,13.95
2022-10-20T20:42:05.957Z,17.75
2022-10-20T20:45:08.464Z,12.15
2022-10-20T20:48:10.456Z,10.88
2022-10-20T20:51:13.983Z,19.73
2022-10-20T20:54:16.043Z,12.05
2022-10-20T20:57:18.042Z,9.98
2022-10-20T21:00:20.000Z,18.70
2022-10-20T21:03:22.056Z,12.02
2022-10-20T21:06:33.132Z,11.95
2022-10-20T21:09:36.442Z,20.30
2022-10-20T21:12:38.667Z,12.70
2022-10-20T21:15:40.818Z,20.52
2022-10-20T21:18:45.962Z,15.60
2022-10-20T21:21:57.578Z,12.43
2022-10-20T21:24:59.690Z,12.35
2022-10-20T21:28:01.798Z,12.68
2022-10-20T21:31:12.625Z,15.43
2022-10-20T21:34:15.379Z,14.80
2022-10-20T21:37:17.529Z,23.08
2022-10-20T21:40:19.675Z,15.93
2022-10-20T21:43:21.726Z,19.15
2022-10-20T21:46:26.527Z,15.38
2022-10-20T21:49:28.513Z,20.35
2022-10-20T21:52:30.824Z,16.73
2022-10-20T21:55:34.680Z,15.02
2022-10-20T21:58:38.355Z,15.00
2022-10-20T22:01:40.301Z,11.95
2022-10-20T22:04:42.277Z,13.40
2022-10-20T22:07:44.274Z,12.15
2022-10-20T22:10:46.356Z,13.88
2022-10-20T22:13:49.018Z,16.15
2022-10-20T22:16:51.791Z,19.23
2022-10-20T22:19:53.861Z,16.50
2022-10-20T22:22:55.819Z,11.95
2022-10-20T22:25:58.042Z,19.17
2022-10-20T22:29:01.366Z,13.15
2022-10-20T22:32:03.540Z,13.13
2022-10-20T22:35:06.061Z,15.88
2022-10-20T22:38:08.041Z,18.10
2022-10-20T22:41:11.016Z,15.43
2022-10-20T22:44:13.039Z,13.75
2022-10-20T22:47:15.058Z,19.98
2022-10-20T22:50:17.305Z,13.23
2022-10-20T22:53:19.466Z,16.45
2022-10-20T22:56:23.209Z,9.63
2022-10-20T22:59:25.186Z,12.35
2022-10-20T23:02:27.218Z,11.90
2022-10-20T23:05:29.211Z,12.07
2022-10-20T23:08:32.710Z,14.48
2022-10-20T23:11:35.689Z,17.20
2022-10-20T23:14:37.678Z,11.95
2022-10-20T23:17:39.967Z,17.00
2022-10-20T23:20:42.133Z,15.82
2022-10-20T23:23:45.505Z,9.25
2022-10-20T23:26:47.473Z,10.18
2022-10-20T23:29:49.470Z,14.10
2022-10-20T23:32:51.500Z,16.92
2022-10-20T23:35:53.604Z,12.88
2022-10-20T23:38:55.586Z,16.25
2022-10-20T23:41:57.604Z,18.45
2022-10-20T23:44:59.915Z,11.73
2022-10-20T23:48:01.920Z,12.10
2022-10-20T23:51:04.966Z,13.07
2022-10-20T23:54:07.146Z,10.38
2022-10-20T23:57:09.253Z,13.07
